Time;durP1;ratioP1;P1;durP2;ratioP2;P2;SDS_P1;SDS_P2;PMS_P1;PMS_P2;Temp;Humidity;BMP_temperature;BMP_pressure;BME280_temperature;BME280_humidity;BME280_pressure;Samples;Min_cycle;Max_cycle;Signal;HPM_P1;HPM_P2
2021/12/22 00:01:26;;;;;;;40.45;19.23;;;;;;;-4.59;77.70;97023.16;5069983;28;20044;-73
2021/12/22 00:03:53;;;;;;;37.25;18.02;;;;;;;-4.61;77.94;97027.84;5070568;28;20055;-73
2021/12/22 00:06:23;;;;;;;36.75;16.45;;;;;;;-4.62;78.05;97028.88;5070022;28;20052;-73
2021/12/22 00:08:49;;;;;;;37.20;18.00;;;;;;;-4.64;77.92;97036.25;5070515;28;20524;-73
2021/12/22 00:11:17;;;;;;;34.92;16.92;;;;;;;-4.65;77.97;97037.25;5069413;28;20052;-72
2021/12/22 00:13:44;;;;;;;34.53;17.20;;;;;;;-4.66;77.91;97038.28;5070326;28;20044;-73
2021/12/22 00:16:12;;;;;;;34.70;16.70;;;;;;;-4.68;78.22;97027.03;5069768;28;20052;-72
2021/12/22 00:18:39;;;;;;;35.05;16.40;;;;;;;-4.69;78.19;97027.25;5069990;28;20045;-73
2021/12/22 00:21:05;;;;;;;39.58;16.15;;;;;;;-4.71;78.32;97024.78;5070107;28;20051;-73
2021/12/22 00:23:32;;;;;;;37.13;17.40;;;;;;;-4.70;78.27;97030.91;5070027;28;20048;-73
2021/12/22 00:25:59;;;;;;;34.42;16.58;;;;;;;-4.71;78.34;97024.78;5070281;28;20056;-73
2021/12/22 00:28:25;;;;;;;36.78;17.23;;;;;;;-4.71;78.40;97030.09;5069529;28;20060;-72
2021/12/22 00:30:52;;;;;;;33.03;15.80;;;;;;;-4.69;78.30;97027.25;5070193;28;20048;-73
2021/12/22 00:33:21;;;;;;;36.80;17.13;;;;;;;-4.66;77.93;97026.84;5069233;28;20056;-73
2021/12/22 00:35:47;;;;;;;36.28;16.90;;;;;;;-4.69;77.83;97022.75;5069827;28;20131;-73
2021/12/22 00:38:16;;;;;;;32.38;16.50;;;;;;;-4.73;77.86;97032.16;5069354;28;20048;-73
2021/12/22 00:40:44;;;;;;;34.88;16.45;;;;;;;-4.70;76.81;97042.34;5069673;28;20044;-73
2021/12/22 00:43:10;;;;;;;31.45;16.38;;;;;;;-4.75;76.38;97039.50;5069168;28;20048;-73
2021/12/22 00:45:37;;;;;;;31.35;15.98;;;;;;;-4.79;76.24;97040.94;5070023;28;20052;-75
2021/12/22 00:48:06;;;;;;;35.30;16.13;;;;;;;-4.85;76.14;97041.78;5068911;28;20060;-72
2021/12/22 00:50:35;;;;;;;32.45;16.88;;;;;;;-4.89;76.20;97040.53;5069843;28;20056;-73
2021/12/22 00:53:02;;;;;;;32.60;16.25;;;;;;;-4.92;76.39;97035.63;5069110;28;20040;-72
2021/12/22 00:55:29;;;;;;;34.65;16.48;;;;;;;-4.93;76.59;97048.09;5069723;28;20067;-73
2021/12/22 00:57:55;;;;;;;33.58;16.67;;;;;;;-4.94;76.86;97040.31;5069242;28;20048;-73
2021/12/22 01:00:28;;;;;;;35.63;16.48;;;;;;;-4.94;77.04;97051.75;5069090;28;20063;-72
2021/12/22 01:02:55;;;;;;;43.88;16.20;;;;;;;-4.95;77.19;97044.00;5069354;28;20044;-73
2021/12/22 01:05:22;;;;;;;34.08;16.02;;;;;;;-4.93;77.22;97044.59;5069004;28;20143;-72
2021/12/22 01:07:51;;;;;;;33.15;16.25;;;;;;;-4.96;77.33;97040.50;5069109;28;20632;-73
2021/12/22 01:10:19;;;;;;;31.70;15.73;;;;;;;-4.96;77.46;97042.34;5068343;28;20083;-73
2021/12/22 01:12:47;;;;;;;34.40;16.30;;;;;;;-4.99;77.66;97054.22;5069146;28;20392;-73
2021/12/22 01:15:14;;;;;;;33.10;15.65;;;;;;;-5.01;77.59;97051.75;5068798;28;20048;-73
2021/12/22 01:17:44;;;;;;;30.73;15.25;;;;;;;-4.99;77.55;97048.91;5068721;28;20416;-73
2021/12/22 01:20:18;;;;;;;35.42;16.15;;;;;;;-5.00;77.41;97053.41;5068887;28;20056;-73
2021/12/22 01:22:48;;;;;;;30.90;16.08;;;;;;;-5.01;77.51;97050.94;5068288;28;20110;-73
2021/12/22 01:25:19;;;;;;;37.17;17.15;;;;;;;-5.01;77.46;97057.06;5068570;28;20083;-72
2021/12/22 01:27:47;;;;;;;34.03;16.30;;;;;;;-5.03;77.55;97059.09;5068582;28;20123;-73
2021/12/22 01:30:16;;;;;;;36.45;16.90;;;;;;;-5.05;77.51;97061.16;5068560;28;20052;-73
2021/12/22 01:32:43;;;;;;;33.75;16.17;;;;;;;-5.06;77.63;97054.22;5068967;28;20102;-73
2021/12/22 01:35:12;;;;;;;35.20;17.58;;;;;;;-5.05;77.81;97061.16;5068702;28;20052;-73
2021/12/22 01:37:40;;;;;;;34.75;17.83;;;;;;;-5.07;77.94;97065.81;5068212;28;20041;-73
2021/12/22 01:40:08;;;;;;;34.42;17.13;;;;;;;-5.08;77.84;97061.53;5067761;28;20052;-72
2021/12/22 01:42:37;;;;;;;37.33;17.85;;;;;;;-5.13;78.01;97058.66;5050688;28;20044;-73
2021/12/22 01:45:25;;;;;;;39.13;17.77;;;;;;;-5.15;78.00;97054.59;5068192;28;20055;-72
2021/12/22 01:50:41;;;;;;;39.60;17.92;;;;;;;-5.18;78.49;97058.47;5068393;28;20048;-73
2021/12/22 01:53:28;;;;;;;36.05;17.75;;;;;;;-5.16;78.43;97051.13;5068163;28;20048;-72
2021/12/22 01:56:05;;;;;;;38.28;17.02;;;;;;;-5.20;78.28;97060.50;5068421;28;20411;-73
2021/12/22 01:58:37;;;;;;;37.45;18.48;;;;;;;-5.23;78.05;97058.25;5067972;28;20121;-72
2021/12/22 02:01:05;;;;;;;42.03;17.60;;;;;;;-5.22;78.15;97057.25;5067646;28;20059;-72
2021/12/22 02:03:32;;;;;;;35.28;16.40;;;;;;;-5.19;78.10;97053.34;5068600;28;20040;-73
2021/12/22 02:05:58;;;;;;;37.75;16.77;;;;;;;-5.21;78.18;97048.25;5068214;28;20049;-72
2021/12/22 02:08:25;;;;;;;36.15;17.13;;;;;;;-5.19;77.97;97048.84;5067610;28;20092;-73
2021/12/22 02:10:51;;;;;;;32.63;16.83;;;;;;;-5.22;77.99;97057.25;5067635;28;20055;-73
2021/12/22 02:13:23;;;;;;;33.10;17.38;;;;;;;-5.20;77.96;97047.22;5067815;28;20060;-72
2021/12/22 02:15:51;;;;;;;32.55;15.45;;;;;;;-5.18;77.38;97050.50;5067958;28;20075;-73
2021/12/22 02:18:19;;;;;;;33.50;15.60;;;;;;;-5.19;77.16;97043.56;5067535;28;20052;-73
2021/12/22 02:20:48;;;;;;;35.15;16.38;;;;;;;-5.21;76.96;97042.13;5068089;28;20055;-73
2021/12/22 02:23:15;;;;;;;35.67;16.35;;;;;;;-5.22;76.93;97049.28;5067503;28;20049;-73
2021/12/22 02:25:47;;;;;;;31.80;15.50;;;;;;;-5.24;76.83;97053.97;5067951;28;20055;-73
2021/12/22 02:28:19;;;;;;;28.75;15.32;;;;;;;-5.25;76.44;97054.97;5066939;28;20048;-73
2021/12/22 02:30:46;;;;;;;36.75;16.75;;;;;;;-5.30;76.47;97052.09;5051120;28;20056;-72
2021/12/22 02:33:24;;;;;;;32.90;15.55;;;;;;;-5.33;76.73;97050.66;5067203;28;20063;-72
2021/12/22 02:36:06;;;;;;;31.27;15.48;;;;;;;-5.31;76.79;97050.47;5067833;28;20075;-73
2021/12/22 02:38:34;;;;;;;27.35;13.80;;;;;;;-5.34;76.75;97045.56;5067319;28;20056;-72
2021/12/22 02:41:02;;;;;;;30.55;14.82;;;;;;;-5.35;76.79;97054.53;5049596;28;20822;-72
2021/12/22 02:43:32;;;;;;;32.83;15.50;;;;;;;-5.34;76.42;97059.66;5067640;28;20044;-73
2021/12/22 02:46:00;;;;;;;28.63;14.55;;;;;;;-5.35;76.44;97054.53;5067900;28;20724;-73
2021/12/22 02:48:29;;;;;;;35.53;16.17;;;;;;;-5.38;76.58;97057.59;5067078;28;20130;-73
2021/12/22 02:50:59;;;;;;;32.00;14.30;;;;;;;-5.40;76.73;97059.63;5067814;28;20048;-73
2021/12/22 02:53:30;;;;;;;33.72;16.15;;;;;;;-5.43;76.81;97060.03;5067102;28;20056;-72
2021/12/22 02:56:02;;;;;;;35.00;16.75;;;;;;;-5.44;76.94;97058.38;5067878;28;20086;-72
2021/12/22 02:58:36;;;;;;;31.55;15.50;;;;;;;-5.46;77.36;97052.47;5067451;28;20491;-72
2021/12/22 03:01:21;;;;;;;37.95;17.38;;;;;;;-5.45;77.31;97054.09;5067430;28;20048;-72
2021/12/22 03:03:57;;;;;;;38.50;16.63;;;;;;;-5.47;77.59;97053.50;5067649;28;20553;-73
2021/12/22 03:06:32;;;;;;;29.88;15.20;;;;;;;-5.48;77.75;97052.69;5067127;28;20147;-72
2021/12/22 03:08:58;;;;;;;41.30;17.38;;;;;;;-5.47;77.81;97054.31;5067353;28;20157;-73
2021/12/22 03:11:25;;;;;;;35.00;15.43;;;;;;;-5.51;77.63;97048.56;5066430;28;20045;-72
2021/12/22 03:13:52;;;;;;;33.72;16.73;;;;;;;-5.53;77.46;97058.59;5067466;28;20058;-72
2021/12/22 03:16:19;;;;;;;33.15;15.75;;;;;;;-5.52;77.71;97054.91;5067043;28;20057;-72
2021/12/22 03:18:45;;;;;;;36.45;17.00;;;;;;;-5.49;77.80;97058.97;5067199;28;20045;-73
2021/12/22 03:21:17;;;;;;;30.13;15.65;;;;;;;-5.51;77.53;97061.84;5067053;28;20053;-72
2021/12/22 03:23:45;;;;;;;33.15;15.07;;;;;;;-5.47;77.34;97066.78;5067409;28;20114;-73
2021/12/22 03:26:14;;;;;;;32.42;14.88;;;;;;;-5.49;77.30;97069.59;5066575;28;20056;-73
2021/12/22 03:28:40;;;;;;;33.08;15.63;;;;;;;-5.49;77.49;97063.47;5067138;28;20052;-72
2021/12/22 03:31:07;;;;;;;32.15;15.98;;;;;;;-5.46;77.51;97071.06;5066963;28;20049;-72
2021/12/22 03:33:33;;;;;;;31.02;15.02;;;;;;;-5.45;77.28;97070.03;5067177;28;20052;-72
2021/12/22 03:36:00;;;;;;;30.42;14.43;;;;;;;-5.45;76.90;97070.03;5067174;28;20403;-72
2021/12/22 03:38:27;;;;;;;28.65;14.70;;;;;;;-5.43;75.65;97081.25;5066835;28;20056;-72
2021/12/22 03:40:55;;;;;;;30.98;14.38;;;;;;;-5.49;75.43;97082.06;5066530;28;20131;-73
2021/12/22 03:43:21;;;;;;;31.10;14.50;;;;;;;-5.56;75.50;97080.19;5066972;28;20079;-72
2021/12/22 03:45:48;;;;;;;29.80;14.88;;;;;;;-5.57;75.64;97080.41;5087401;28;20048;-73
2021/12/22 03:48:17;;;;;;;32.30;15.50;;;;;;;-5.62;75.55;97085.50;5086375;28;20055;-72
2021/12/22 03:50:43;;;;;;;31.98;14.30;;;;;;;-5.64;75.70;97085.66;5072374;28;20127;-73
2021/12/22 03:53:10;;;;;;;30.73;15.30;;;;;;;-5.66;75.94;97078.94;5066454;28;20055;-72
2021/12/22 03:55:36;;;;;;;32.78;14.80;;;;;;;-5.68;76.16;97076.50;5067199;28;20080;-72
2021/12/22 03:58:05;;;;;;;31.67;14.43;;;;;;;-5.69;76.20;97080.16;5066777;28;20044;-73
2021/12/22 04:00:31;;;;;;;29.88;15.63;;;;;;;-5.68;76.12;97086.28;5067017;28;20051;-73
2021/12/22 04:02:58;;;;;;;26.75;13.95;;;;;;;-5.70;76.44;97083.81;5067067;28;20052;-73
2021/12/22 04:05:24;;;;;;;31.52;15.55;;;;;;;-5.71;76.58;97078.72;5066388;28;20072;-72
2021/12/22 04:07:53;;;;;;;32.08;15.75;;;;;;;-5.71;76.62;97076.88;5066521;28;20048;-72
2021/12/22 04:10:22;;;;;;;30.08;15.10;;;;;;;-5.70;76.81;97075.84;5067165;28;20045;-72
2021/12/22 04:12:50;;;;;;;33.20;16.02;;;;;;;-5.71;76.78;97070.75;5070392;28;20048;-73
2021/12/22 04:15:18;;;;;;;34.05;15.52;;;;;;;-5.71;77.17;97071.56;5069635;28;20036;-72
2021/12/22 04:17:45;;;;;;;34.53;15.52;;;;;;;-5.70;77.20;97072.38;5070127;28;20503;-73
2021/12/22 04:20:12;;;;;;;29.98;15.25;;;;;;;-5.70;77.54;97078.50;5069999;28;20051;-72
2021/12/22 04:22:39;;;;;;;33.53;16.23;;;;;;;-5.66;77.05;97085.06;5070346;28;20056;-72
2021/12/22 04:25:09;;;;;;;30.70;14.75;;;;;;;-5.67;77.26;97086.06;5070000;28;20048;-72
2021/12/22 04:27:36;;;;;;;30.77;14.63;;;;;;;-5.67;77.36;97082.59;5070109;28;20415;-72
2021/12/22 04:30:04;;;;;;;31.35;14.48;;;;;;;-5.65;77.08;97091.19;5069718;28;20056;-72
2021/12/22 04:32:31;;;;;;;28.70;14.85;;;;;;;-5.61;76.39;97103.03;5070312;28;20050;-72
2021/12/22 04:34:58;;;;;;;31.33;14.25;;;;;;;-5.62;75.97;97096.91;5069976;28;20044;-73
2021/12/22 04:37:25;;;;;;;30.90;14.57;;;;;;;-5.68;75.77;97092.41;5069236;28;20069;-72
2021/12/22 04:39:51;;;;;;;31.35;16.40;;;;;;;-5.71;76.22;97097.28;5070079;28;20527;-72
2021/12/22 04:42:19;;;;;;;32.90;15.20;;;;;;;-5.73;76.41;97089.53;5069917;28;20052;-72
2021/12/22 04:44:46;;;;;;;31.13;14.88;;;;;;;-5.73;76.61;97089.53;5082320;28;20058;-72
2021/12/22 04:47:12;;;;;;;31.45;13.55;;;;;;;-5.75;76.74;97080.94;5089535;28;20071;-72
2021/12/22 04:49:40;;;;;;;28.05;13.85;;;;;;;-5.77;76.71;97085.63;5089867;28;20047;-72
2021/12/22 04:52:09;;;;;;;31.75;13.90;;;;;;;-5.77;76.73;97078.47;5089306;28;20055;-72
2021/12/22 04:54:46;;;;;;;32.47;16.00;;;;;;;-5.76;76.65;97081.94;5089755;28;20098;-72
2021/12/22 04:57:14;;;;;;;29.05;14.75;;;;;;;-5.78;76.74;97089.28;5089352;28;20503;-72
2021/12/22 04:59:40;;;;;;;26.83;13.52;;;;;;;-5.75;76.73;97088.88;5089829;28;20063;-72
2021/12/22 05:02:06;;;;;;;28.30;14.40;;;;;;;-5.78;76.67;97091.94;5089526;28;20055;-72
2021/12/22 05:04:33;;;;;;;31.95;14.70;;;;;;;-5.77;76.67;97102.34;5090027;28;20044;-73
2021/12/22 05:07:01;;;;;;;30.20;15.27;;;;;;;-5.77;76.54;97099.69;5089614;28;20529;-73
2021/12/22 05:09:27;;;;;;;32.08;15.20;;;;;;;-5.78;76.69;97102.56;5089248;28;20043;-72
2021/12/22 05:11:54;;;;;;;35.75;15.60;;;;;;;-5.79;76.79;97092.97;5089779;28;20047;-72
2021/12/22 05:14:20;;;;;;;30.15;13.77;;;;;;;-5.79;76.79;97087.66;5077837;28;20048;-72
2021/12/22 05:16:51;;;;;;;30.17;13.55;;;;;;;-5.77;76.74;97085.63;5069233;28;20044;-72
2021/12/22 05:19:18;;;;;;;32.95;14.50;;;;;;;-5.77;76.64;97085.63;5068817;28;20053;-72
2021/12/22 05:21:45;;;;;;;30.77;14.65;;;;;;;-5.78;76.74;97086.66;5068392;28;20045;-73
2021/12/22 05:24:13;;;;;;;31.92;14.85;;;;;;;-5.80;76.86;97078.84;5068844;28;20049;-73
2021/12/22 05:26:40;;;;;;;34.28;14.75;;;;;;;-5.82;76.71;97075.59;5068686;28;20439;-73
2021/12/22 05:29:07;;;;;;;28.77;13.73;;;;;;;-5.83;77.01;97081.09;5068383;28;20557;-73
2021/12/22 05:31:34;;;;;;;28.63;13.70;;;;;;;-5.85;76.99;97078.63;5068395;28;20056;-73
2021/12/22 05:34:01;;;;;;;30.35;14.15;;;;;;;-5.84;77.18;97084.78;5068721;28;20123;-73
2021/12/22 05:36:27;;;;;;;31.52;14.82;;;;;;;-5.82;77.28;97088.03;5068375;28;20048;-73
2021/12/22 05:38:54;;;;;;;28.25;13.52;;;;;;;-5.81;77.10;97093.16;5068752;28;20407;-73
2021/12/22 05:41:21;;;;;;;31.70;15.00;;;;;;;-5.80;77.04;97088.66;5068377;28;20055;-73
2021/12/22 05:43:48;;;;;;;30.95;14.48;;;;;;;-5.75;76.55;97085.41;5067908;28;20496;-72
2021/12/22 05:46:16;;;;;;;28.60;13.50;;;;;;;-5.73;76.19;97083.41;5068071;28;20052;-72
2021/12/22 05:48:44;;;;;;;29.23;13.73;;;;;;;-5.74;75.55;97087.91;5068525;28;20053;-72
2021/12/22 05:51:10;;;;;;;28.05;13.48;;;;;;;-5.79;75.53;97090.31;5068196;28;20131;-72
2021/12/22 05:53:37;;;;;;;27.98;13.35;;;;;;;-5.84;75.71;97090.09;5068719;28;20514;-72
2021/12/22 05:56:04;;;;;;;26.70;13.02;;;;;;;-5.81;75.91;97092.31;5067861;28;20057;-72
2021/12/22 05:58:32;;;;;;;27.00;12.77;;;;;;;-5.81;75.94;97081.72;5068301;28;20402;-72
2021/12/22 06:01:00;;;;;;;25.90;13.30;;;;;;;-5.84;75.76;97082.13;5068214;28;20057;-73
2021/12/22 06:03:26;;;;;;;31.55;13.95;;;;;;;-5.84;75.88;97092.75;5067819;28;20053;-72
2021/12/22 06:05:53;;;;;;;25.35;13.65;;;;;;;-5.86;76.11;97084.13;5068170;28;20052;-72
2021/12/22 06:08:19;;;;;;;26.95;14.30;;;;;;;-5.88;76.09;97086.19;5067760;28;20052;-73
2021/12/22 06:10:46;;;;;;;32.55;13.90;;;;;;;-5.89;76.18;97081.91;5068240;28;20071;-72
2021/12/22 06:13:12;;;;;;;30.25;14.50;;;;;;;-5.86;76.18;97089.44;5067328;28;20056;-72
2021/12/22 06:15:41;;;;;;;26.30;14.45;;;;;;;-5.85;76.19;97096.38;5088406;28;20044;-72
2021/12/22 06:18:08;;;;;;;29.35;13.95;;;;;;;-5.86;76.31;97089.44;5087807;28;20083;-72
2021/12/22 06:20:36;;;;;;;29.67;14.25;;;;;;;-5.85;76.29;97096.38;5088351;28;20438;-72
2021/12/22 06:23:02;;;;;;;30.98;14.88;;;;;;;-5.88;76.27;97092.31;5087979;28;20133;-72
2021/12/22 06:25:29;;;;;;;28.77;13.70;;;;;;;-5.90;76.45;97104.09;5088295;28;20778;-72
2021/12/22 06:27:55;;;;;;;35.30;14.50;;;;;;;-5.88;76.26;97102.09;5088030;28;20052;-73
2021/12/22 06:30:23;;;;;;;34.17;14.90;;;;;;;-5.88;76.38;97102.09;5087671;28;20055;-72
2021/12/22 06:32:51;;;;;;;34.90;15.30;;;;;;;-5.88;76.10;97100.25;5087846;28;20051;-72
2021/12/22 06:35:18;;;;;;;34.22;14.35;;;;;;;-5.92;76.26;97107.00;5087423;28;20492;-72
2021/12/22 06:37:46;;;;;;;33.33;15.65;;;;;;;-5.92;76.35;97107.00;5087744;28;20047;-72
2021/12/22 06:40:13;;;;;;;32.05;14.82;;;;;;;-5.94;76.26;97101.06;5087369;28;20047;-72
2021/12/22 06:42:41;;;;;;;31.90;15.20;;;;;;;-5.93;76.65;97099.25;5077465;28;20051;-72
2021/12/22 06:45:09;;;;;;;32.47;15.10;;;;;;;-5.94;77.11;97089.66;5069698;28;20079;-72
2021/12/22 06:47:36;;;;;;;34.60;14.93;;;;;;;-5.91;77.19;97095.34;5067457;28;20044;-72
2021/12/22 06:50:06;;;;;;;29.38;14.80;;;;;;;-5.88;77.33;97094.13;5066913;28;20060;-72
2021/12/22 06:52:33;;;;;;;36.25;14.73;;;;;;;-5.84;77.52;97090.91;5067700;28;20595;-72
2021/12/22 06:54:59;;;;;;;28.80;14.45;;;;;;;-5.82;77.95;97096.00;5067569;28;20044;-72
2021/12/22 06:57:28;;;;;;;29.35;14.18;;;;;;;-5.78;78.05;97103.38;5067543;28;20049;-73
2021/12/22 06:59:56;;;;;;;31.13;13.45;;;;;;;-5.75;78.33;97096.84;5067609;28;20055;-72
2021/12/22 07:02:24;;;;;;;28.35;13.75;;;;;;;-5.68;78.32;97097.72;5067462;28;20105;-72
2021/12/22 07:04:51;;;;;;;28.77;13.45;;;;;;;-5.66;77.79;97102.81;5067424;28;20056;-72
2021/12/22 07:07:19;;;;;;;32.30;15.00;;;;;;;-5.67;77.13;97103.84;5066653;28;20535;-72
2021/12/22 07:09:45;;;;;;;29.48;13.77;;;;;;;-5.68;76.97;97103.00;5067422;28;20388;-73
2021/12/22 07:12:12;;;;;;;35.35;15.63;;;;;;;-5.69;76.73;97114.66;5067042;28;20049;-72
2021/12/22 07:14:39;;;;;;;31.88;14.98;;;;;;;-5.72;76.85;97106.25;5066883;28;20045;-72
2021/12/22 07:17:05;;;;;;;30.67;14.13;;;;;;;-5.74;77.17;97109.13;5067022;28;20408;-72
2021/12/22 07:19:32;;;;;;;29.35;14.45;;;;;;;-5.71;77.39;97107.88;5067430;28;20048;-72
2021/12/22 07:21:58;;;;;;;31.33;15.43;;;;;;;-5.69;77.79;97106.69;5067435;28;20055;-72
2021/12/22 07:24:26;;;;;;;30.80;15.93;;;;;;;-5.68;78.17;97116.28;5066880;28;20051;-72
2021/12/22 07:26:53;;;;;;;33.90;15.68;;;;;;;-5.65;78.47;97112.41;5067589;28;20048;-72
2021/12/22 07:29:20;;;;;;;33.92;16.40;;;;;;;-5.60;78.69;97115.28;5066979;28;20057;-72
2021/12/22 07:31:46;;;;;;;29.52;14.57;;;;;;;-5.54;78.60;97115.31;5067335;28;20715;-72
2021/12/22 07:34:20;;;;;;;33.72;15.50;;;;;;;-5.49;78.59;97111.25;5066646;28;20051;-71
2021/12/22 07:36:55;;;;;;;31.27;15.93;;;;;;;-5.45;78.97;97101.88;5067288;28;20411;-71
2021/12/22 07:39:21;;;;;;;30.88;15.02;;;;;;;-5.44;78.80;97103.50;5066756;28;20048;-71
2021/12/22 07:41:49;;;;;;;33.25;17.05;;;;;;;-5.41;79.07;97103.94;5067449;28;20040;-72
2021/12/22 07:44:16;;;;;;;32.35;16.02;;;;;;;-5.39;79.22;97098.44;5066250;28;20048;-71
2021/12/22 07:46:43;;;;;;;39.80;16.33;;;;;;;-5.40;79.54;97104.75;5070176;28;20072;-71
2021/12/22 07:49:09;;;;;;;32.75;15.95;;;;;;;-5.36;79.87;97100.69;5070289;28;20793;-71
2021/12/22 07:51:36;;;;;;;34.38;16.50;;;;;;;-5.33;80.14;97109.06;5070343;28;20048;-71
2021/12/22 07:54:02;;;;;;;31.88;15.18;;;;;;;-5.32;80.31;97107.25;5069137;28;20499;-72
2021/12/22 07:56:29;;;;;;;31.00;15.82;;;;;;;-5.30;80.49;97105.19;5069747;28;20423;-73
2021/12/22 07:58:57;;;;;;;30.15;14.98;;;;;;;-5.28;80.77;97103.16;5070400;28;20048;-73
2021/12/22 08:01:23;;;;;;;39.80;17.98;;;;;;;-5.21;80.98;97103.19;5069622;28;20389;-73
2021/12/22 08:03:50;;;;;;;36.05;15.48;;;;;;;-5.18;81.03;97097.47;5069314;28;20040;-73
2021/12/22 08:06:17;;;;;;;32.15;16.13;;;;;;;-5.15;81.14;97095.25;5069739;28;20060;-73
2021/12/22 08:08:44;;;;;;;36.97;16.33;;;;;;;-5.02;81.33;97107.72;5070445;28;20051;-74
2021/12/22 08:11:11;;;;;;;31.58;16.23;;;;;;;-4.83;81.47;97106.13;5069808;28;20067;-74
2021/12/22 08:13:38;;;;;;;36.45;16.95;;;;;;;-4.44;82.06;97099.19;5074004;28;20044;-73
2021/12/22 08:16:06;;;;;;;32.25;14.95;;;;;;;-3.93;81.70;97112.66;5089884;28;20530;-73
2021/12/22 08:18:33;;;;;;;26.90;13.88;;;;;;;-3.53;79.98;97113.38;5090448;28;20044;-73
2021/12/22 08:20:59;;;;;;;24.90;12.80;;;;;;;-3.35;77.99;97112.69;5090451;28;20039;-73
2021/12/22 08:23:26;;;;;;;25.80;13.10;;;;;;;-3.31;76.26;97113.91;5090059;28;20048;-73
2021/12/22 08:25:53;;;;;;;26.70;14.23;;;;;;;-3.34;75.84;97116.16;5090102;28;20051;-73
2021/12/22 08:28:19;;;;;;;28.23;14.18;;;;;;;-3.33;76.13;97117.81;5076339;28;20048;-73
2021/12/22 08:30:46;;;;;;;30.92;14.57;;;;;;;-3.34;75.95;97121.47;5069899;28;20052;-72
2021/12/22 08:33:20;;;;;;;27.95;14.20;;;;;;;-3.34;76.41;97126.81;5069230;28;20484;-73
2021/12/22 08:41:17;;;;;;;29.42;13.82;;;;;;;-3.33;76.66;97126.63;5069094;28;20144;-75
2021/12/22 08:43:43;;;;;;;30.00;14.93;;;;;;;-3.37;76.74;97124.59;5068894;28;20053;-73
2021/12/22 08:46:10;;;;;;;30.48;14.75;;;;;;;-3.43;76.83;97132.38;5068912;28;20511;-73
2021/12/22 08:48:37;;;;;;;32.45;15.68;;;;;;;-3.43;77.19;97127.06;5069504;28;20055;-73
2021/12/22 08:51:04;;;;;;;35.63;16.45;;;;;;;-3.36;77.05;97134.22;5068737;28;20057;-74
2021/12/22 08:53:31;;;;;;;28.67;14.68;;;;;;;-3.42;77.01;97131.34;5069724;28;20071;-73
2021/12/22 08:55:57;;;;;;;31.63;16.35;;;;;;;-3.39;77.56;97132.78;5069281;28;20048;-72
2021/12/22 08:58:24;;;;;;;27.55;15.48;;;;;;;-3.34;77.69;97132.13;5068814;28;20044;-73
2021/12/22 09:00:50;;;;;;;33.38;16.23;;;;;;;-3.31;77.80;97137.88;5069483;28;20055;-73
2021/12/22 09:03:17;;;;;;;30.13;16.85;;;;;;;-3.24;77.88;97143.97;5068956;28;20060;-73
2021/12/22 09:05:45;;;;;;;30.55;15.10;;;;;;;-3.20;77.62;97150.53;5069357;28;20523;-73
2021/12/22 09:08:11;;;;;;;30.10;15.93;;;;;;;-3.19;77.91;97140.69;5068476;28;20504;-72
2021/12/22 09:10:38;;;;;;;32.33;16.02;;;;;;;-3.19;78.03;97144.16;5069544;28;20060;-72
2021/12/22 09:13:04;;;;;;;30.60;16.52;;;;;;;-3.18;77.96;97153.00;5068605;28;20051;-72
2021/12/22 09:15:31;;;;;;;33.35;16.23;;;;;;;-3.16;78.11;97150.94;5068511;28;20048;-72
2021/12/22 09:17:58;;;;;;;31.90;16.45;;;;;;;-3.12;78.21;97152.16;5068519;28;20408;-74
2021/12/22 09:20:25;;;;;;;33.33;16.08;;;;;;;-3.04;78.32;97154.56;5068803;28;20044;-73
2021/12/22 09:22:53;;;;;;;33.65;16.50;;;;;;;-2.94;78.06;97143.44;5068689;28;20072;-73
2021/12/22 09:25:19;;;;;;;34.05;16.17;;;;;;;-2.83;77.88;97141.94;5068561;28;20083;-73
2021/12/22 09:27:46;;;;;;;30.63;15.68;;;;;;;-2.78;77.65;97148.28;5068828;28;20044;-73
2021/12/22 09:30:13;;;;;;;31.35;16.40;;;;;;;-2.75;77.24;97141.72;5068673;28;20415;-73
2021/12/22 09:32:39;;;;;;;31.83;16.23;;;;;;;-2.68;77.22;97143.28;5068924;28;20068;-73
2021/12/22 09:35:07;;;;;;;33.17;16.65;;;;;;;-2.53;77.20;97148.31;5068337;28;20059;-72
2021/12/22 09:37:33;;;;;;;31.10;15.80;;;;;;;-2.32;77.86;97157.00;5068381;28;20057;-73
2021/12/22 09:40:03;;;;;;;35.80;17.50;;;;;;;-2.21;77.15;97153.63;5068676;28;20048;-73
2021/12/22 09:42:30;;;;;;;31.70;15.70;;;;;;;-2.05;76.17;97157.63;5068407;28;20045;-73
2021/12/22 09:45:00;;;;;;;29.35;15.50;;;;;;;-1.80;75.72;97153.09;5067821;28;20431;-73
2021/12/22 09:47:31;;;;;;;29.15;16.65;;;;;;;-1.53;75.11;97140.28;5067708;28;20055;-73
2021/12/22 09:50:08;;;;;;;32.67;16.00;;;;;;;-1.27;73.82;97127.66;5068817;28;20044;-73
2021/12/22 09:52:36;;;;;;;27.58;14.35;;;;;;;-0.94;72.78;97125.41;5068432;28;20040;-73
2021/12/22 09:55:06;;;;;;;26.30;14.15;;;;;;;-0.67;71.28;97136.56;5067815;28;20048;-73
2021/12/22 09:57:33;;;;;;;27.80;14.88;;;;;;;-0.40;70.84;97134.31;5067934;28;20048;-74
2021/12/22 10:00:01;;;;;;;28.25;15.43;;;;;;;-0.15;70.47;97136.81;5068556;28;20057;-73
2021/12/22 10:02:29;;;;;;;28.30;15.38;;;;;;;0.07;69.96;97134.38;5067776;28;20055;-73
2021/12/22 10:04:57;;;;;;;24.30;14.48;;;;;;;0.25;68.96;97128.91;5068237;28;20562;-74
2021/12/22 10:07:26;;;;;;;23.83;13.75;;;;;;;0.39;68.75;97121.44;5067027;28;20077;-74
2021/12/22 10:09:55;;;;;;;29.13;16.00;;;;;;;0.54;67.39;97123.66;5068193;28;20059;-74
2021/12/22 10:12:25;;;;;;;26.08;14.80;;;;;;;0.75;66.22;97120.34;5067174;28;20063;-75
2021/12/22 10:14:54;;;;;;;25.95;14.07;;;;;;;0.97;66.05;97115.16;5067913;28;20048;-74
2021/12/22 10:17:33;;;;;;;23.17;13.68;;;;;;;1.15;64.27;97108.81;5066960;28;20411;-74
2021/12/22 10:20:02;;;;;;;24.70;15.02;;;;;;;1.29;64.23;97107.44;5068034;28;20400;-76
2021/12/22 10:22:34;;;;;;;25.58;12.90;;;;;;;1.48;64.33;97101.91;5067675;28;20052;-74
2021/12/22 10:25:08;;;;;;;22.48;14.40;;;;;;;1.56;61.51;97082.69;5067801;28;20051;-74
2021/12/22 10:27:38;;;;;;;24.38;13.15;;;;;;;1.66;61.75;97088.25;5067110;28;20102;-74
2021/12/22 10:30:25;;;;;;;25.00;13.25;;;;;;;1.67;61.14;97084.53;5067421;28;20055;-73
2021/12/22 10:33:04;;;;;;;24.70;13.80;;;;;;;1.80;61.60;97084.19;5068010;28;20053;-74
2021/12/22 10:35:32;;;;;;;21.63;12.98;;;;;;;2.01;61.16;97079.13;5067237;28;20048;-74
2021/12/22 10:37:59;;;;;;;23.42;13.27;;;;;;;1.98;60.25;97079.59;5067573;28;20052;-74
2021/12/22 10:40:29;;;;;;;20.50;13.05;;;;;;;1.87;60.62;97083.19;5066664;28;20051;-74
2021/12/22 10:42:57;;;;;;;22.35;13.95;;;;;;;1.72;61.20;97076.56;5068056;28;20137;-74
2021/12/22 10:45:27;;;;;;;23.65;13.63;;;;;;;1.51;61.93;97070.03;5066504;28;20048;-74
2021/12/22 10:50:40;;;;;;;22.88;14.05;;;;;;;1.09;63.98;97066.03;5067739;28;20089;-73
2021/12/22 10:53:08;;;;;;;25.45;14.77;;;;;;;1.14;65.96;97064.25;5067515;28;20055;-73
2021/12/22 10:55:40;;;;;;;31.75;15.20;;;;;;;1.17;66.53;97061.09;5067806;28;20055;-73
2021/12/22 10:58:24;;;;;;;24.48;13.73;;;;;;;1.29;64.76;97059.16;5066904;28;20545;-73
2021/12/22 11:01:07;;;;;;;19.08;12.48;;;;;;;1.43;63.50;97056.19;5067706;28;20047;-74
2021/12/22 11:03:38;;;;;;;20.42;13.30;;;;;;;1.53;62.23;97056.34;5067597;28;20045;-73
2021/12/22 11:06:12;;;;;;;23.92;13.88;;;;;;;1.63;62.12;97051.16;5067537;28;20057;-73
2021/12/22 11:08:38;;;;;;;22.75;13.63;;;;;;;1.66;61.98;97050.66;5067465;28;20048;-73
2021/12/22 11:11:12;;;;;;;20.20;13.35;;;;;;;1.63;61.55;97045.78;5067468;28;20048;-73
2021/12/22 11:13:40;;;;;;;23.70;13.55;;;;;;;1.60;61.88;97046.25;5066920;28;20040;-74
2021/12/22 11:16:11;;;;;;;23.67;14.50;;;;;;;1.56;62.00;97034.38;5067049;28;20059;-73
2021/12/22 11:18:38;;;;;;;27.27;15.43;;;;;;;1.60;63.07;97040.09;5067145;28;20068;-74
2021/12/22 11:21:10;;;;;;;26.98;15.77;;;;;;;1.61;62.38;97026.41;5069484;28;20056;-73
2021/12/22 11:23:37;;;;;;;26.52;14.18;;;;;;;1.64;62.03;97023.25;5071515;28;20040;-74
2021/12/22 11:26:04;;;;;;;22.08;13.57;;;;;;;1.73;62.58;97013.72;5071313;28;20045;-72
2021/12/22 11:28:33;;;;;;;22.70;13.88;;;;;;;1.80;62.44;97019.72;5070214;28;20049;-74
2021/12/22 11:31:03;;;;;;;21.48;12.95;;;;;;;1.75;61.49;97019.66;5071391;28;20041;-74
2021/12/22 11:33:31;;;;;;;22.00;12.65;;;;;;;1.65;62.03;97005.25;5070326;28;20048;-74
2021/12/22 11:36:00;;;;;;;25.20;14.55;;;;;;;1.67;63.48;97009.34;5071342;28;20048;-74